sensor_id;sensor_type;location;lat;lon;timestamp;P1;durP1;ratioP1;P2;durP2;ratioP2
62848;SDS011;48941;49.516;8.286;2023-02-28T00:01:11;3.65;;;2.38;;
62848;SDS011;48941;49.516;8.286;2023-02-28T00:03:40;2.50;;;2.15;;
62848;SDS011;48941;49.516;8.286;2023-02-28T00:06:08;3.47;;;2.17;;
62848;SDS011;48941;49.516;8.286;2023-02-28T00:08:36;4.50;;;2.40;;
62848;SDS011;48941;49.516;8.286;2023-02-28T00:11:06;3.42;;;2.40;;
62848;SDS011;48941;49.516;8.286;2023-02-28T00:13:36;4.22;;;2.20;;
62848;SDS011;48941;49.516;8.286;2023-02-28T00:16:07;3.10;;;2.20;;
62848;SDS011;48941;49.516;8.286;2023-02-28T00:18:37;4.30;;;2.20;;
62848;SDS011;48941;49.516;8.286;2023-02-28T00:21:05;2.70;;;2.33;;
62848;SDS011;48941;49.516;8.286;2023-02-28T00:23:33;4.35;;;2.42;;
62848;SDS011;48941;49.516;8.286;2023-02-28T00:26:01;3.53;;;2.22;;
62848;SDS011;48941;49.516;8.286;2023-02-28T00:28:31;3.75;;;2.50;;
62848;SDS011;48941;49.516;8.286;2023-02-28T00:30:59;3.60;;;2.42;;
62848;SDS011;48941;49.516;8.286;2023-02-28T00:33:27;3.33;;;2.50;;
62848;SDS011;48941;49.516;8.286;2023-02-28T00:36:01;3.67;;;2.63;;
62848;SDS011;48941;49.516;8.286;2023-02-28T00:38:31;5.15;;;2.47;;
62848;SDS011;48941;49.516;8.286;2023-02-28T00:40:59;3.22;;;2.60;;
62848;SDS011;48941;49.516;8.286;2023-02-28T00:43:33;3.57;;;2.40;;
62848;SDS011;48941;49.516;8.286;2023-02-28T00:46:02;3.88;;;2.60;;
62848;SDS011;48941;49.516;8.286;2023-02-28T00:48:30;3.78;;;2.65;;
62848;SDS011;48941;49.516;8.286;2023-02-28T00:50:59;3.42;;;2.40;;
62848;SDS011;48941;49.516;8.286;2023-02-28T00:53:26;3.78;;;2.70;;
62848;SDS011;48941;49.516;8.286;2023-02-28T00:55:54;3.33;;;2.67;;
62848;SDS011;48941;49.516;8.286;2023-02-28T00:58:23;3.97;;;2.72;;
62848;SDS011;48941;49.516;8.286;2023-02-28T01:00:52;5.13;;;2.85;;
62848;SDS011;48941;49.516;8.286;2023-02-28T01:03:20;3.85;;;2.85;;
62848;SDS011;48941;49.516;8.286;2023-02-28T01:05:49;4.32;;;2.58;;
62848;SDS011;48941;49.516;8.286;2023-02-28T01:08:19;5.45;;;3.15;;
62848;SDS011;48941;49.516;8.286;2023-02-28T01:10:47;5.03;;;3.20;;
62848;SDS011;48941;49.516;8.286;2023-02-28T01:13:15;4.18;;;2.65;;
62848;SDS011;48941;49.516;8.286;2023-02-28T01:15:45;7.25;;;3.08;;
62848;SDS011;48941;49.516;8.286;2023-02-28T01:20:45;4.22;;;2.63;;
62848;SDS011;48941;49.516;8.286;2023-02-28T01:23:13;5.18;;;3.05;;
62848;SDS011;48941;49.516;8.286;2023-02-28T01:25:41;4.93;;;2.88;;
62848;SDS011;48941;49.516;8.286;2023-02-28T01:28:09;3.67;;;2.97;;
62848;SDS011;48941;49.516;8.286;2023-02-28T01:30:37;5.25;;;3.20;;
62848;SDS011;48941;49.516;8.286;2023-02-28T01:33:04;4.93;;;3.15;;
62848;SDS011;48941;49.516;8.286;2023-02-28T01:35:34;4.47;;;2.70;;
62848;SDS011;48941;49.516;8.286;2023-02-28T01:38:02;5.60;;;2.92;;
62848;SDS011;48941;49.516;8.286;2023-02-28T01:40:47;5.88;;;3.28;;
62848;SDS011;48941;49.516;8.286;2023-02-28T01:43:19;4.68;;;2.95;;
62848;SDS011;48941;49.516;8.286;2023-02-28T01:45:49;5.63;;;3.00;;
62848;SDS011;48941;49.516;8.286;2023-02-28T01:48:17;3.90;;;2.70;;
62848;SDS011;48941;49.516;8.286;2023-02-28T01:50:47;5.65;;;3.30;;
62848;SDS011;48941;49.516;8.286;2023-02-28T01:53:18;5.05;;;2.95;;
62848;SDS011;48941;49.516;8.286;2023-02-28T01:55:49;4.47;;;3.03;;
62848;SDS011;48941;49.516;8.286;2023-02-28T01:58:20;4.90;;;2.75;;
62848;SDS011;48941;49.516;8.286;2023-02-28T02:00:48;4.25;;;2.92;;
62848;SDS011;48941;49.516;8.286;2023-02-28T02:03:17;6.82;;;3.40;;
62848;SDS011;48941;49.516;8.286;2023-02-28T02:05:49;3.65;;;3.10;;
62848;SDS011;48941;49.516;8.286;2023-02-28T02:08:18;4.25;;;2.97;;
62848;SDS011;48941;49.516;8.286;2023-02-28T02:10:50;4.22;;;3.05;;
62848;SDS011;48941;49.516;8.286;2023-02-28T02:13:24;5.32;;;3.22;;
62848;SDS011;48941;49.516;8.286;2023-02-28T02:16:04;4.63;;;2.72;;
62848;SDS011;48941;49.516;8.286;2023-02-28T02:18:44;4.03;;;2.83;;
62848;SDS011;48941;49.516;8.286;2023-02-28T02:30:05;5.20;;;2.83;;
62848;SDS011;48941;49.516;8.286;2023-02-28T02:32:49;4.75;;;3.10;;
62848;SDS011;48941;49.516;8.286;2023-02-28T02:35:31;4.95;;;3.33;;
62848;SDS011;48941;49.516;8.286;2023-02-28T02:38:06;4.82;;;3.10;;
62848;SDS011;48941;49.516;8.286;2023-02-28T02:40:39;4.82;;;3.05;;
62848;SDS011;48941;49.516;8.286;2023-02-28T02:43:15;6.28;;;3.00;;
62848;SDS011;48941;49.516;8.286;2023-02-28T02:45:47;5.18;;;2.83;;
62848;SDS011;48941;49.516;8.286;2023-02-28T02:48:19;4.70;;;2.80;;
62848;SDS011;48941;49.516;8.286;2023-02-28T02:50:53;5.47;;;2.80;;
62848;SDS011;48941;49.516;8.286;2023-02-28T02:53:24;6.05;;;3.13;;
62848;SDS011;48941;49.516;8.286;2023-02-28T02:55:56;5.38;;;3.22;;
62848;SDS011;48941;49.516;8.286;2023-02-28T02:58:27;4.55;;;3.20;;
62848;SDS011;48941;49.516;8.286;2023-02-28T03:00:59;6.70;;;3.25;;
62848;SDS011;48941;49.516;8.286;2023-02-28T03:03:29;4.50;;;3.10;;
62848;SDS011;48941;49.516;8.286;2023-02-28T03:06:01;4.30;;;3.08;;
62848;SDS011;48941;49.516;8.286;2023-02-28T03:08:33;4.43;;;2.83;;
62848;SDS011;48941;49.516;8.286;2023-02-28T03:11:03;4.32;;;2.97;;
62848;SDS011;48941;49.516;8.286;2023-02-28T03:13:37;5.25;;;3.08;;
62848;SDS011;48941;49.516;8.286;2023-02-28T03:16:17;7.50;;;3.38;;
62848;SDS011;48941;49.516;8.286;2023-02-28T03:18:58;4.13;;;2.80;;
62848;SDS011;48941;49.516;8.286;2023-02-28T03:21:40;3.40;;;2.47;;
62848;SDS011;48941;49.516;8.286;2023-02-28T03:24:20;3.50;;;2.70;;
62848;SDS011;48941;49.516;8.286;2023-02-28T03:26:55;4.70;;;2.80;;
62848;SDS011;48941;49.516;8.286;2023-02-28T03:29:32;5.35;;;3.28;;
62848;SDS011;48941;49.516;8.286;2023-02-28T03:32:03;4.07;;;2.80;;
62848;SDS011;48941;49.516;8.286;2023-02-28T03:34:38;5.38;;;3.20;;
62848;SDS011;48941;49.516;8.286;2023-02-28T03:37:10;3.63;;;2.83;;
62848;SDS011;48941;49.516;8.286;2023-02-28T03:39:42;4.75;;;3.15;;
62848;SDS011;48941;49.516;8.286;2023-02-28T03:42:14;3.90;;;2.70;;
62848;SDS011;48941;49.516;8.286;2023-02-28T03:44:46;4.77;;;2.87;;
62848;SDS011;48941;49.516;8.286;2023-02-28T03:47:21;5.22;;;2.83;;
62848;SDS011;48941;49.516;8.286;2023-02-28T03:49:53;5.38;;;2.97;;
62848;SDS011;48941;49.516;8.286;2023-02-28T03:52:27;6.80;;;3.00;;
62848;SDS011;48941;49.516;8.286;2023-02-28T03:55:00;4.75;;;2.67;;
62848;SDS011;48941;49.516;8.286;2023-02-28T03:57:33;4.47;;;3.10;;
62848;SDS011;48941;49.516;8.286;2023-02-28T04:00:07;5.50;;;3.17;;
62848;SDS011;48941;49.516;8.286;2023-02-28T04:02:41;5.90;;;3.70;;
62848;SDS011;48941;49.516;8.286;2023-02-28T04:05:09;5.88;;;3.05;;
62848;SDS011;48941;49.516;8.286;2023-02-28T04:07:38;6.82;;;3.08;;
62848;SDS011;48941;49.516;8.286;2023-02-28T04:10:06;6.68;;;3.05;;
62848;SDS011;48941;49.516;8.286;2023-02-28T04:12:34;5.20;;;2.70;;
62848;SDS011;48941;49.516;8.286;2023-02-28T04:15:02;4.57;;;3.00;;
62848;SDS011;48941;49.516;8.286;2023-02-28T04:17:30;4.13;;;2.70;;
62848;SDS011;48941;49.516;8.286;2023-02-28T04:19:58;5.85;;;3.55;;
62848;SDS011;48941;49.516;8.286;2023-02-28T04:22:25;4.10;;;2.95;;
62848;SDS011;48941;49.516;8.286;2023-02-28T04:24:57;5.00;;;3.45;;
62848;SDS011;48941;49.516;8.286;2023-02-28T04:27:25;6.10;;;3.40;;
62848;SDS011;48941;49.516;8.286;2023-02-28T04:29:53;6.78;;;3.35;;
62848;SDS011;48941;49.516;8.286;2023-02-28T04:32:20;5.82;;;3.10;;
62848;SDS011;48941;49.516;8.286;2023-02-28T04:34:48;6.05;;;3.40;;
62848;SDS011;48941;49.516;8.286;2023-02-28T04:37:16;5.03;;;3.22;;
62848;SDS011;48941;49.516;8.286;2023-02-28T04:39:44;4.07;;;3.15;;
62848;SDS011;48941;49.516;8.286;2023-02-28T04:42:13;5.32;;;3.22;;
62848;SDS011;48941;49.516;8.286;2023-02-28T04:44:40;4.45;;;3.00;;
62848;SDS011;48941;49.516;8.286;2023-02-28T04:47:08;6.40;;;3.40;;
62848;SDS011;48941;49.516;8.286;2023-02-28T04:49:36;5.90;;;3.28;;
62848;SDS011;48941;49.516;8.286;2023-02-28T04:52:04;6.80;;;3.30;;
62848;SDS011;48941;49.516;8.286;2023-02-28T04:54:33;9.18;;;3.90;;
62848;SDS011;48941;49.516;8.286;2023-02-28T04:57:01;5.07;;;3.30;;
62848;SDS011;48941;49.516;8.286;2023-02-28T04:59:32;6.85;;;3.50;;
62848;SDS011;48941;49.516;8.286;2023-02-28T05:01:59;4.70;;;3.47;;
62848;SDS011;48941;49.516;8.286;2023-02-28T05:04:33;6.32;;;3.28;;
62848;SDS011;48941;49.516;8.286;2023-02-28T05:07:01;5.75;;;3.72;;
62848;SDS011;48941;49.516;8.286;2023-02-28T05:09:30;4.57;;;3.40;;
62848;SDS011;48941;49.516;8.286;2023-02-28T05:11:59;6.43;;;3.50;;
62848;SDS011;48941;49.516;8.286;2023-02-28T05:14:26;5.68;;;3.78;;
62848;SDS011;48941;49.516;8.286;2023-02-28T05:16:55;5.18;;;3.55;;
62848;SDS011;48941;49.516;8.286;2023-02-28T05:19:23;4.60;;;3.33;;
62848;SDS011;48941;49.516;8.286;2023-02-28T05:21:51;4.82;;;3.25;;
62848;SDS011;48941;49.516;8.286;2023-02-28T05:24:20;7.72;;;3.55;;
62848;SDS011;48941;49.516;8.286;2023-02-28T05:26:52;4.97;;;3.60;;
62848;SDS011;48941;49.516;8.286;2023-02-28T05:29:21;4.80;;;3.30;;
62848;SDS011;48941;49.516;8.286;2023-02-28T05:31:49;7.65;;;3.90;;
62848;SDS011;48941;49.516;8.286;2023-02-28T05:34:19;6.28;;;3.55;;
62848;SDS011;48941;49.516;8.286;2023-02-28T05:36:49;6.45;;;3.70;;
62848;SDS011;48941;49.516;8.286;2023-02-28T05:39:16;7.53;;;4.45;;
62848;SDS011;48941;49.516;8.286;2023-02-28T05:41:48;6.68;;;4.00;;
62848;SDS011;48941;49.516;8.286;2023-02-28T05:44:15;5.88;;;3.95;;
62848;SDS011;48941;49.516;8.286;2023-02-28T05:46:43;6.55;;;3.72;;
62848;SDS011;48941;49.516;8.286;2023-02-28T05:49:11;5.18;;;3.35;;
62848;SDS011;48941;49.516;8.286;2023-02-28T05:51:43;6.57;;;3.60;;
62848;SDS011;48941;49.516;8.286;2023-02-28T05:54:10;5.68;;;3.67;;
62848;SDS011;48941;49.516;8.286;2023-02-28T05:56:39;5.57;;;3.95;;
62848;SDS011;48941;49.516;8.286;2023-02-28T05:59:10;9.15;;;3.95;;
62848;SDS011;48941;49.516;8.286;2023-02-28T06:01:38;5.10;;;3.40;;
62848;SDS011;48941;49.516;8.286;2023-02-28T06:04:08;5.72;;;3.75;;
62848;SDS011;48941;49.516;8.286;2023-02-28T06:06:55;6.38;;;3.83;;
62848;SDS011;48941;49.516;8.286;2023-02-28T06:09:24;6.75;;;4.20;;
62848;SDS011;48941;49.516;8.286;2023-02-28T06:11:52;5.25;;;4.07;;
62848;SDS011;48941;49.516;8.286;2023-02-28T06:14:20;9.07;;;4.40;;
62848;SDS011;48941;49.516;8.286;2023-02-28T06:16:48;7.47;;;4.43;;
62848;SDS011;48941;49.516;8.286;2023-02-28T06:19:16;7.78;;;3.97;;
62848;SDS011;48941;49.516;8.286;2023-02-28T06:21:44;8.70;;;4.20;;
62848;SDS011;48941;49.516;8.286;2023-02-28T06:24:13;6.68;;;4.07;;
62848;SDS011;48941;49.516;8.286;2023-02-28T06:26:41;8.68;;;4.32;;
62848;SDS011;48941;49.516;8.286;2023-02-28T06:29:09;7.72;;;4.15;;
62848;SDS011;48941;49.516;8.286;2023-02-28T06:31:37;6.63;;;4.10;;
62848;SDS011;48941;49.516;8.286;2023-02-28T06:34:04;6.55;;;4.00;;
62848;SDS011;48941;49.516;8.286;2023-02-28T06:36:32;7.72;;;4.32;;
62848;SDS011;48941;49.516;8.286;2023-02-28T06:39:00;8.02;;;4.35;;
62848;SDS011;48941;49.516;8.286;2023-02-28T06:41:29;8.43;;;4.38;;
62848;SDS011;48941;49.516;8.286;2023-02-28T06:44:17;7.88;;;4.22;;
62848;SDS011;48941;49.516;8.286;2023-02-28T06:46:45;8.15;;;4.50;;
62848;SDS011;48941;49.516;8.286;2023-02-28T06:49:13;7.63;;;4.18;;
62848;SDS011;48941;49.516;8.286;2023-02-28T06:51:42;6.75;;;4.18;;
62848;SDS011;48941;49.516;8.286;2023-02-28T06:54:12;8.63;;;4.20;;
62848;SDS011;48941;49.516;8.286;2023-02-28T06:56:41;11.07;;;5.13;;
62848;SDS011;48941;49.516;8.286;2023-02-28T06:59:09;10.20;;;4.97;;
62848;SDS011;48941;49.516;8.286;2023-02-28T07:01:37;6.95;;;4.40;;
62848;SDS011;48941;49.516;8.286;2023-02-28T07:04:05;7.40;;;4.00;;
62848;SDS011;48941;49.516;8.286;2023-02-28T07:06:33;6.53;;;4.35;;
62848;SDS011;48941;49.516;8.286;2023-02-28T07:09:01;7.20;;;4.63;;
62848;SDS011;48941;49.516;8.286;2023-02-28T07:11:30;6.38;;;4.10;;
62848;SDS011;48941;49.516;8.286;2023-02-28T07:13:59;7.57;;;4.25;;
62848;SDS011;48941;49.516;8.286;2023-02-28T07:16:27;7.25;;;4.63;;
62848;SDS011;48941;49.516;8.286;2023-02-28T07:18:55;7.22;;;4.50;;
62848;SDS011;48941;49.516;8.286;2023-02-28T07:21:23;9.82;;;5.68;;
62848;SDS011;48941;49.516;8.286;2023-02-28T07:23:51;8.35;;;4.50;;
62848;SDS011;48941;49.516;8.286;2023-02-28T07:26:19;7.72;;;4.43;;
62848;SDS011;48941;49.516;8.286;2023-02-28T07:28:48;6.63;;;4.55;;
62848;SDS011;48941;49.516;8.286;2023-02-28T07:31:17;8.10;;;4.20;;
62848;SDS011;48941;49.516;8.286;2023-02-28T07:33:45;9.60;;;4.57;;
62848;SDS011;48941;49.516;8.286;2023-02-28T07:36:14;7.25;;;4.35;;
62848;SDS011;48941;49.516;8.286;2023-02-28T07:38:45;5.60;;;4.03;;
62848;SDS011;48941;49.516;8.286;2023-02-28T07:41:20;8.02;;;4.00;;
62848;SDS011;48941;49.516;8.286;2023-02-28T07:43:52;6.45;;;4.13;;
62848;SDS011;48941;49.516;8.286;2023-02-28T07:46:22;8.90;;;4.53;;
62848;SDS011;48941;49.516;8.286;2023-02-28T07:48:50;7.53;;;4.72;;
62848;SDS011;48941;49.516;8.286;2023-02-28T07:51:19;6.35;;;4.28;;
62848;SDS011;48941;49.516;8.286;2023-02-28T07:53:47;6.70;;;3.90;;
62848;SDS011;48941;49.516;8.286;2023-02-28T07:56:14;10.63;;;5.00;;
62848;SDS011;48941;49.516;8.286;2023-02-28T07:58:42;10.35;;;5.45;;
62848;SDS011;48941;49.516;8.286;2023-02-28T08:01:10;11.52;;;4.82;;
62848;SDS011;48941;49.516;8.286;2023-02-28T08:03:40;7.20;;;4.90;;
62848;SDS011;48941;49.516;8.286;2023-02-28T08:06:14;12.43;;;5.55;;
62848;SDS011;48941;49.516;8.286;2023-02-28T08:08:43;15.00;;;6.95;;
62848;SDS011;48941;49.516;8.286;2023-02-28T08:11:11;11.70;;;5.10;;
62848;SDS011;48941;49.516;8.286;2023-02-28T08:13:40;24.80;;;10.27;;
62848;SDS011;48941;49.516;8.286;2023-02-28T08:16:10;12.90;;;6.38;;
62848;SDS011;48941;49.516;8.286;2023-02-28T08:18:42;8.43;;;5.00;;
62848;SDS011;48941;49.516;8.286;2023-02-28T08:21:10;7.32;;;4.78;;
62848;SDS011;48941;49.516;8.286;2023-02-28T08:23:38;13.23;;;4.82;;
62848;SDS011;48941;49.516;8.286;2023-02-28T08:26:06;5.68;;;4.20;;
62848;SDS011;48941;49.516;8.286;2023-02-28T08:28:34;8.70;;;4.75;;
62848;SDS011;48941;49.516;8.286;2023-02-28T08:31:08;11.02;;;5.13;;
62848;SDS011;48941;49.516;8.286;2023-02-28T08:33:37;6.68;;;4.45;;
62848;SDS011;48941;49.516;8.286;2023-02-28T08:36:08;8.48;;;4.68;;
62848;SDS011;48941;49.516;8.286;2023-02-28T08:38:36;6.80;;;4.32;;
62848;SDS011;48941;49.516;8.286;2023-02-28T08:41:06;8.75;;;5.40;;
62848;SDS011;48941;49.516;8.286;2023-02-28T08:43:35;11.32;;;6.28;;
62848;SDS011;48941;49.516;8.286;2023-02-28T08:46:04;11.77;;;6.05;;
62848;SDS011;48941;49.516;8.286;2023-02-28T08:48:33;9.23;;;5.35;;
62848;SDS011;48941;49.516;8.286;2023-02-28T08:51:05;10.82;;;5.15;;
62848;SDS011;48941;49.516;8.286;2023-02-28T08:53:36;10.00;;;5.00;;
62848;SDS011;48941;49.516;8.286;2023-02-28T08:56:05;8.40;;;5.28;;
62848;SDS011;48941;49.516;8.286;2023-02-28T08:58:35;8.77;;;4.93;;
62848;SDS011;48941;49.516;8.286;2023-02-28T09:01:07;9.60;;;5.20;;
62848;SDS011;48941;49.516;8.286;2023-02-28T09:03:37;9.40;;;5.30;;
62848;SDS011;48941;49.516;8.286;2023-02-28T09:06:05;8.70;;;5.07;;
62848;SDS011;48941;49.516;8.286;2023-02-28T09:08:34;8.40;;;5.90;;
62848;SDS011;48941;49.516;8.286;2023-02-28T09:11:03;11.20;;;5.82;;
62848;SDS011;48941;49.516;8.286;2023-02-28T09:13:32;8.45;;;5.20;;
62848;SDS011;48941;49.516;8.286;2023-02-28T09:16:01;9.75;;;5.35;;
62848;SDS011;48941;49.516;8.286;2023-02-28T09:18:30;10.13;;;5.38;;
62848;SDS011;48941;49.516;8.286;2023-02-28T09:20:58;9.05;;;5.28;;
62848;SDS011;48941;49.516;8.286;2023-02-28T09:23:26;9.57;;;5.22;;
62848;SDS011;48941;49.516;8.286;2023-02-28T09:25:55;9.18;;;5.50;;
62848;SDS011;48941;49.516;8.286;2023-02-28T09:28:23;7.47;;;5.10;;
62848;SDS011;48941;49.516;8.286;2023-02-28T09:30:52;8.27;;;5.20;;
62848;SDS011;48941;49.516;8.286;2023-02-28T09:33:21;9.13;;;5.20;;
62848;SDS011;48941;49.516;8.286;2023-02-28T09:35:49;7.75;;;4.95;;
62848;SDS011;48941;49.516;8.286;2023-02-28T09:38:18;8.98;;;5.20;;
62848;SDS011;48941;49.516;8.286;2023-02-28T09:40:47;9.13;;;5.68;;
62848;SDS011;48941;49.516;8.286;2023-02-28T09:43:23;9.23;;;5.63;;
62848;SDS011;48941;49.516;8.286;2023-02-28T09:45:54;7.78;;;5.47;;
62848;SDS011;48941;49.516;8.286;2023-02-28T09:48:32;10.85;;;6.05;;
62848;SDS011;48941;49.516;8.286;2023-02-28T09:51:09;8.48;;;5.20;;
62848;SDS011;48941;49.516;8.286;2023-02-28T09:53:45;14.60;;;5.93;;
62848;SDS011;48941;49.516;8.286;2023-02-28T09:56:24;9.88;;;5.30;;
62848;SDS011;48941;49.516;8.286;2023-02-28T09:58:59;12.48;;;5.70;;
62848;SDS011;48941;49.516;8.286;2023-02-28T10:01:31;7.22;;;5.22;;
62848;SDS011;48941;49.516;8.286;2023-02-28T10:04:05;9.90;;;5.45;;
62848;SDS011;48941;49.516;8.286;2023-02-28T10:06:43;11.02;;;5.30;;
62848;SDS011;48941;49.516;8.286;2023-02-28T10:09:15;9.18;;;5.43;;
62848;SDS011;48941;49.516;8.286;2023-02-28T10:11:51;10.70;;;5.22;;
62848;SDS011;48941;49.516;8.286;2023-02-28T10:14:26;21.05;;;11.60;;
62848;SDS011;48941;49.516;8.286;2023-02-28T10:16:58;14.50;;;7.60;;
62848;SDS011;48941;49.516;8.286;2023-02-28T10:19:30;10.02;;;6.03;;
62848;SDS011;48941;49.516;8.286;2023-02-28T10:22:09;10.50;;;6.18;;
62848;SDS011;48941;49.516;8.286;2023-02-28T10:24:42;9.43;;;5.45;;
62848;SDS011;48941;49.516;8.286;2023-02-28T10:27:13;10.80;;;5.93;;
62848;SDS011;48941;49.516;8.286;2023-02-28T10:29:45;8.70;;;5.22;;
62848;SDS011;48941;49.516;8.286;2023-02-28T10:32:15;9.80;;;5.90;;
62848;SDS011;48941;49.516;8.286;2023-02-28T10:34:45;7.38;;;5.57;;
62848;SDS011;48941;49.516;8.286;2023-02-28T10:37:19;9.70;;;5.57;;
62848;SDS011;48941;49.516;8.286;2023-02-28T10:39:48;9.48;;;5.32;;
62848;SDS011;48941;49.516;8.286;2023-02-28T10:42:20;9.85;;;5.57;;
62848;SDS011;48941;49.516;8.286;2023-02-28T10:47:42;9.60;;;5.70;;
62848;SDS011;48941;49.516;8.286;2023-02-28T10:50:26;7.90;;;5.25;;
62848;SDS011;48941;49.516;8.286;2023-02-28T10:53:00;9.38;;;5.72;;
62848;SDS011;48941;49.516;8.286;2023-02-28T10:55:36;10.88;;;5.35;;
62848;SDS011;48941;49.516;8.286;2023-02-28T10:58:11;8.45;;;5.53;;
62848;SDS011;48941;49.516;8.286;2023-02-28T11:00:49;8.88;;;5.57;;
62848;SDS011;48941;49.516;8.286;2023-02-28T11:03:28;10.73;;;6.03;;
62848;SDS011;48941;49.516;8.286;2023-02-28T11:05:58;8.40;;;5.80;;
62848;SDS011;48941;49.516;8.286;2023-02-28T11:08:31;8.75;;;5.57;;
62848;SDS011;48941;49.516;8.286;2023-02-28T11:11:01;12.13;;;6.32;;
62848;SDS011;48941;49.516;8.286;2023-02-28T11:13:32;8.10;;;5.53;;
62848;SDS011;48941;49.516;8.286;2023-02-28T11:16:05;8.20;;;5.30;;
62848;SDS011;48941;49.516;8.286;2023-02-28T11:18:36;8.98;;;6.05;;
62848;SDS011;48941;49.516;8.286;2023-02-28T11:21:08;10.63;;;5.70;;
62848;SDS011;48941;49.516;8.286;2023-02-28T11:23:39;11.50;;;7.18;;
62848;SDS011;48941;49.516;8.286;2023-02-28T11:26:08;12.77;;;6.72;;
62848;SDS011;48941;49.516;8.286;2023-02-28T11:28:39;9.10;;;5.90;;
62848;SDS011;48941;49.516;8.286;2023-02-28T11:31:16;15.45;;;6.07;;
62848;SDS011;48941;49.516;8.286;2023-02-28T11:33:47;12.15;;;5.82;;
62848;SDS011;48941;49.516;8.286;2023-02-28T11:36:18;9.88;;;6.18;;
62848;SDS011;48941;49.516;8.286;2023-02-28T11:38:51;10.73;;;5.63;;
62848;SDS011;48941;49.516;8.286;2023-02-28T11:41:30;11.82;;;5.95;;
62848;SDS011;48941;49.516;8.286;2023-02-28T11:44:20;8.10;;;5.78;;
62848;SDS011;48941;49.516;8.286;2023-02-28T11:46:56;10.65;;;6.00;;
62848;SDS011;48941;49.516;8.286;2023-02-28T11:49:32;9.57;;;5.95;;
62848;SDS011;48941;49.516;8.286;2023-02-28T11:52:06;9.88;;;6.30;;
62848;SDS011;48941;49.516;8.286;2023-02-28T11:54:51;8.50;;;6.13;;
62848;SDS011;48941;49.516;8.286;2023-02-28T11:57:32;10.00;;;6.35;;
62848;SDS011;48941;49.516;8.286;2023-02-28T12:00:14;8.73;;;5.65;;
62848;SDS011;48941;49.516;8.286;2023-02-28T12:03:01;9.05;;;5.72;;
62848;SDS011;48941;49.516;8.286;2023-02-28T12:05:38;9.73;;;5.63;;
62848;SDS011;48941;49.516;8.286;2023-02-28T12:08:17;8.70;;;6.10;;
62848;SDS011;48941;49.516;8.286;2023-02-28T12:10:57;10.00;;;6.07;;
62848;SDS011;48941;49.516;8.286;2023-02-28T12:13:37;8.30;;;5.80;;
62848;SDS011;48941;49.516;8.286;2023-02-28T12:16:24;8.30;;;5.82;;
62848;SDS011;48941;49.516;8.286;2023-02-28T12:19:14;11.52;;;6.82;;
62848;SDS011;48941;49.516;8.286;2023-02-28T12:21:59;10.20;;;5.95;;
62848;SDS011;48941;49.516;8.286;2023-02-28T12:27:51;10.90;;;6.70;;
62848;SDS011;48941;49.516;8.286;2023-02-28T12:30:21;10.15;;;6.05;;
62848;SDS011;48941;49.516;8.286;2023-02-28T12:32:52;11.18;;;6.15;;
62848;SDS011;48941;49.516;8.286;2023-02-28T12:35:26;13.13;;;5.97;;
62848;SDS011;48941;49.516;8.286;2023-02-28T12:38:02;11.80;;;6.25;;
62848;SDS011;48941;49.516;8.286;2023-02-28T12:40:41;10.25;;;6.60;;
62848;SDS011;48941;49.516;8.286;2023-02-28T12:43:13;9.70;;;6.22;;
62848;SDS011;48941;49.516;8.286;2023-02-28T12:45:45;10.15;;;6.68;;
62848;SDS011;48941;49.516;8.286;2023-02-28T12:48:18;8.52;;;6.10;;
62848;SDS011;48941;49.516;8.286;2023-02-28T12:50:52;9.50;;;6.05;;
62848;SDS011;48941;49.516;8.286;2023-02-28T12:53:23;9.68;;;5.97;;
62848;SDS011;48941;49.516;8.286;2023-02-28T12:56:02;11.07;;;6.50;;
62848;SDS011;48941;49.516;8.286;2023-02-28T12:58:41;9.00;;;6.13;;
62848;SDS011;48941;49.516;8.286;2023-02-28T13:01:16;13.20;;;6.47;;
62848;SDS011;48941;49.516;8.286;2023-02-28T13:04:18;10.63;;;6.47;;
62848;SDS011;48941;49.516;8.286;2023-02-28T13:07:12;11.25;;;6.50;;
62848;SDS011;48941;49.516;8.286;2023-02-28T13:09:57;10.45;;;6.70;;
62848;SDS011;48941;49.516;8.286;2023-02-28T13:12:27;9.63;;;6.53;;
62848;SDS011;48941;49.516;8.286;2023-02-28T13:15:01;8.95;;;6.20;;
62848;SDS011;48941;49.516;8.286;2023-02-28T13:17:33;16.10;;;6.25;;
62848;SDS011;48941;49.516;8.286;2023-02-28T13:20:01;11.10;;;7.25;;
62848;SDS011;48941;49.516;8.286;2023-02-28T13:22:40;9.43;;;6.68;;
62848;SDS011;48941;49.516;8.286;2023-02-28T13:34:39;10.98;;;6.60;;
62848;SDS011;48941;49.516;8.286;2023-02-28T13:37:32;11.98;;;6.90;;
62848;SDS011;48941;49.516;8.286;2023-02-28T13:43:08;10.15;;;6.80;;
62848;SDS011;48941;49.516;8.286;2023-02-28T13:45:38;13.75;;;6.82;;
62848;SDS011;48941;49.516;8.286;2023-02-28T13:48:27;9.00;;;6.32;;
62848;SDS011;48941;49.516;8.286;2023-02-28T13:50:56;9.35;;;6.78;;
62848;SDS011;48941;49.516;8.286;2023-02-28T13:53:34;11.98;;;6.97;;
62848;SDS011;48941;49.516;8.286;2023-02-28T13:56:21;10.25;;;6.72;;
62848;SDS011;48941;49.516;8.286;2023-02-28T13:59:01;10.07;;;6.60;;
62848;SDS011;48941;49.516;8.286;2023-02-28T14:09:54;9.82;;;6.53;;
62848;SDS011;48941;49.516;8.286;2023-02-28T14:15:48;12.88;;;6.47;;
62848;SDS011;48941;49.516;8.286;2023-02-28T14:18:27;10.23;;;6.70;;
62848;SDS011;48941;49.516;8.286;2023-02-28T14:20:59;11.40;;;7.00;;
62848;SDS011;48941;49.516;8.286;2023-02-28T14:23:39;11.00;;;7.88;;
62848;SDS011;48941;49.516;8.286;2023-02-28T14:26:26;10.90;;;7.28;;
62848;SDS011;48941;49.516;8.286;2023-02-28T14:29:07;9.27;;;6.25;;
62848;SDS011;48941;49.516;8.286;2023-02-28T14:31:51;9.63;;;6.63;;
62848;SDS011;48941;49.516;8.286;2023-02-28T14:37:19;10.32;;;6.80;;
62848;SDS011;48941;49.516;8.286;2023-02-28T14:39:53;16.25;;;9.02;;
62848;SDS011;48941;49.516;8.286;2023-02-28T14:42:29;15.35;;;8.95;;
62848;SDS011;48941;49.516;8.286;2023-02-28T14:44:59;10.48;;;6.95;;
62848;SDS011;48941;49.516;8.286;2023-02-28T14:47:30;11.70;;;7.65;;
62848;SDS011;48941;49.516;8.286;2023-02-28T14:50:02;13.30;;;7.57;;
62848;SDS011;48941;49.516;8.286;2023-02-28T14:52:31;9.65;;;6.88;;
62848;SDS011;48941;49.516;8.286;2023-02-28T14:55:01;10.20;;;6.97;;
62848;SDS011;48941;49.516;8.286;2023-02-28T14:57:32;13.68;;;7.13;;
62848;SDS011;48941;49.516;8.286;2023-02-28T15:00:03;10.32;;;7.30;;
62848;SDS011;48941;49.516;8.286;2023-02-28T15:02:40;11.70;;;7.25;;
62848;SDS011;48941;49.516;8.286;2023-02-28T15:05:21;23.15;;;12.95;;
62848;SDS011;48941;49.516;8.286;2023-02-28T15:08:00;9.60;;;6.97;;
62848;SDS011;48941;49.516;8.286;2023-02-28T15:10:29;10.93;;;6.68;;
62848;SDS011;48941;49.516;8.286;2023-02-28T15:12:58;12.35;;;6.55;;
62848;SDS011;48941;49.516;8.286;2023-02-28T15:15:34;11.10;;;7.00;;
62848;SDS011;48941;49.516;8.286;2023-02-28T15:18:28;10.80;;;6.57;;
62848;SDS011;48941;49.516;8.286;2023-02-28T15:21:02;11.18;;;6.53;;
62848;SDS011;48941;49.516;8.286;2023-02-28T15:23:32;9.35;;;6.35;;
62848;SDS011;48941;49.516;8.286;2023-02-28T15:26:03;10.57;;;7.00;;
62848;SDS011;48941;49.516;8.286;2023-02-28T15:28:32;11.45;;;7.03;;
62848;SDS011;48941;49.516;8.286;2023-02-28T15:31:01;10.48;;;6.53;;
62848;SDS011;48941;49.516;8.286;2023-02-28T15:33:32;11.48;;;6.95;;
62848;SDS011;48941;49.516;8.286;2023-02-28T15:36:10;10.07;;;6.55;;
62848;SDS011;48941;49.516;8.286;2023-02-28T15:38:41;12.73;;;7.22;;
62848;SDS011;48941;49.516;8.286;2023-02-28T15:41:21;10.77;;;7.45;;
62848;SDS011;48941;49.516;8.286;2023-02-28T15:46:53;14.27;;;7.30;;
62848;SDS011;48941;49.516;8.286;2023-02-28T15:49:24;14.85;;;7.72;;
62848;SDS011;48941;49.516;8.286;2023-02-28T15:51:53;10.85;;;7.38;;
62848;SDS011;48941;49.516;8.286;2023-02-28T15:54:27;16.25;;;10.25;;
62848;SDS011;48941;49.516;8.286;2023-02-28T15:56:57;16.35;;;8.93;;
62848;SDS011;48941;49.516;8.286;2023-02-28T15:59:29;13.30;;;7.83;;